Time;durP1;ratioP1;P1;durP2;ratioP2;P2;SDS_P1;SDS_P2;PMS_P1;PMS_P2;Temp;Humidity;BMP_temperature;BMP_pressure;BME280_temperature;BME280_humidity;BME280_pressure;Samples;Min_cycle;Max_cycle;Signal;HPM_P1;HPM_P2
2024/01/04 00:00:29;;;;;;;15.97;7.57;;;8.20;99.90;;;;;;4973308;28;20104;-81
2024/01/04 00:02:55;;;;;;;16.97;7.87;;;8.20;99.90;;;;;;4974032;28;20098;-80
2024/01/04 00:05:21;;;;;;;17.37;8.13;;;8.20;99.90;;;;;;4957162;28;20177;-81
2024/01/04 00:07:47;;;;;;;18.37;8.37;;;8.20;99.90;;;;;;4956764;28;20060;-81
2024/01/04 00:10:14;;;;;;;19.83;9.47;;;8.20;99.90;;;;;;4974182;28;20039;-81
2024/01/04 00:12:42;;;;;;;23.07;9.70;;;8.20;99.90;;;;;;4957117;28;20394;-83
2024/01/04 00:15:08;;;;;;;21.00;8.97;;;8.20;99.90;;;;;;4974311;28;20038;-81
2024/01/04 00:17:33;;;;;;;21.33;9.17;;;8.20;99.90;;;;;;4956966;28;20113;-81
2024/01/04 00:20:00;;;;;;;23.43;9.17;;;8.20;99.90;;;;;;4974240;28;20067;-81
2024/01/04 00:22:26;;;;;;;20.07;8.60;;;8.20;99.90;;;;;;4973083;28;20487;-82
2024/01/04 00:24:52;;;;;;;18.47;8.33;;;8.30;99.90;;;;;;4973984;28;20062;-82
2024/01/04 00:27:18;;;;;;;19.20;8.10;;;8.30;99.90;;;;;;4974417;28;20050;-86
2024/01/04 00:29:43;;;;;;;19.20;8.00;;;8.30;99.90;;;;;;4974126;28;20085;-80
2024/01/04 00:32:10;;;;;;;18.53;7.20;;;8.30;99.90;;;;;;4956825;28;20117;-81
2024/01/04 00:34:36;;;;;;;16.87;6.13;;;8.30;99.90;;;;;;4956474;28;20120;-81
2024/01/04 00:37:04;;;;;;;15.77;5.60;;;8.30;99.90;;;;;;4957151;28;20054;-82
2024/01/04 00:39:30;;;;;;;12.73;4.73;;;8.30;99.90;;;;;;4962490;28;20015;-81
2024/01/04 00:41:57;;;;;;;14.87;5.20;;;8.30;99.90;;;;;;4980515;28;20102;-81
2024/01/04 00:44:23;;;;;;;15.47;4.60;;;8.30;99.90;;;;;;4963214;28;20474;-81
2024/01/04 00:46:51;;;;;;;14.93;5.30;;;8.20;99.90;;;;;;4980877;28;20051;-85
2024/01/04 00:49:17;;;;;;;15.37;4.80;;;8.20;99.90;;;;;;4980141;28;20054;-81
2024/01/04 00:51:43;;;;;;;14.60;6.00;;;8.20;99.90;;;;;;4980656;28;20122;-82
2024/01/04 00:54:09;;;;;;;13.57;5.67;;;8.20;99.90;;;;;;4979085;28;20387;-80
2024/01/04 00:56:36;;;;;;;17.97;5.10;;;8.30;99.90;;;;;;4962750;28;20427;-81
2024/01/04 00:59:02;;;;;;;16.27;4.33;;;8.30;99.90;;;;;;4980318;28;20082;-81
2024/01/04 01:01:30;;;;;;;9.87;3.97;;;8.30;99.90;;;;;;4963010;28;20543;-80
2024/01/04 01:03:57;;;;;;;11.30;3.77;;;8.30;99.90;;;;;;4979158;28;20027;-81
2024/01/04 01:06:24;;;;;;;11.80;3.80;;;8.20;99.90;;;;;;4981126;28;20023;-80
2024/01/04 01:08:50;;;;;;;14.10;4.13;;;8.20;99.90;;;;;;4963034;28;20081;-82
2024/01/04 01:11:15;;;;;;;16.73;3.97;;;8.30;99.90;;;;;;4962762;28;20026;-84
2024/01/04 01:13:41;;;;;;;12.80;3.73;;;8.20;99.90;;;;;;4962966;28;20155;-81
2024/01/04 01:16:10;;;;;;;11.57;3.03;;;8.20;99.90;;;;;;4978894;28;20031;-82
2024/01/04 01:18:37;;;;;;;21.23;3.47;;;8.20;99.90;;;;;;4980125;28;20041;-80
2024/01/04 01:21:05;;;;;;;17.33;2.53;;;8.20;99.90;;;;;;4963014;28;20036;-82
2024/01/04 01:23:30;;;;;;;9.27;2.60;;;8.20;99.90;;;;;;4962371;28;20026;-81
2024/01/04 01:25:56;;;;;;;8.40;2.37;;;8.10;99.90;;;;;;4963041;28;20030;-81
2024/01/04 01:28:22;;;;;;;10.10;2.47;;;8.10;99.90;;;;;;4962887;28;20035;-82
2024/01/04 01:30:47;;;;;;;10.77;2.10;;;8.10;99.90;;;;;;4980294;28;20026;-82
2024/01/04 01:33:13;;;;;;;9.87;2.37;;;8.10;99.90;;;;;;4962844;28;20070;-81
2024/01/04 01:35:39;;;;;;;19.37;4.27;;;8.10;99.90;;;;;;4961815;28;20189;-81
2024/01/04 01:38:04;;;;;;;10.77;3.50;;;8.10;99.90;;;;;;4978750;28;20506;-81
2024/01/04 01:40:30;;;;;;;13.80;3.77;;;8.10;99.90;;;;;;4962852;28;20034;-81
2024/01/04 01:42:56;;;;;;;11.53;3.20;;;8.10;99.90;;;;;;4962828;28;20023;-82
2024/01/04 01:45:22;;;;;;;8.47;2.97;;;8.10;99.90;;;;;;4980697;28;20022;-83
2024/01/04 01:47:48;;;;;;;13.27;3.40;;;8.10;99.90;;;;;;4979966;28;20102;-81
2024/01/04 01:50:21;;;;;;;15.03;2.90;;;8.20;99.90;;;;;;4976364;28;20058;-82
2024/01/04 01:52:56;;;;;;;15.33;2.60;;;8.20;99.90;;;;;;4976737;28;20475;-81
2024/01/04 01:55:23;;;;;;;11.57;2.67;;;8.20;99.90;;;;;;4959660;28;20118;-82
2024/01/04 01:57:50;;;;;;;6.07;2.30;;;8.20;99.90;;;;;;4975835;28;20027;-81
2024/01/04 02:00:16;;;;;;;11.33;2.57;;;8.10;99.90;;;;;;4959284;28;20101;-81
2024/01/04 02:02:48;;;;;;;12.60;3.07;;;8.20;99.90;;;;;;4976940;28;20027;-81
2024/01/04 02:05:15;;;;;;;12.17;3.00;;;8.20;99.90;;;;;;4977033;28;20050;-81
2024/01/04 02:07:43;;;;;;;14.87;2.73;;;8.10;99.90;;;;;;4976929;28;20085;-81
2024/01/04 02:10:09;;;;;;;17.30;3.40;;;8.10;99.90;;;;;;4959260;28;20031;-81
2024/01/04 02:12:34;;;;;;;14.90;3.20;;;8.10;99.90;;;;;;4959360;28;20030;-81
2024/01/04 02:15:00;;;;;;;13.70;3.30;;;8.20;99.90;;;;;;4976260;28;20053;-82
2024/01/04 02:17:29;;;;;;;12.73;3.73;;;8.20;99.90;;;;;;4959089;28;20034;-81
2024/01/04 02:19:57;;;;;;;13.40;3.60;;;8.20;99.90;;;;;;4976479;28;20022;-81
2024/01/04 02:22:22;;;;;;;17.53;3.87;;;8.20;99.90;;;;;;4958951;28;20019;-81
2024/01/04 02:24:48;;;;;;;16.93;3.57;;;8.20;99.90;;;;;;4958882;28;20541;-82
2024/01/04 02:27:15;;;;;;;13.53;3.13;;;8.20;99.90;;;;;;4959136;28;20360;-80
2024/01/04 02:29:43;;;;;;;16.70;4.00;;;8.20;99.90;;;;;;4976349;28;20549;-80
2024/01/04 02:32:08;;;;;;;18.30;4.73;;;8.20;99.90;;;;;;4958882;28;20073;-80
2024/01/04 02:34:34;;;;;;;16.07;4.53;;;8.20;99.90;;;;;;4958381;28;20050;-81
2024/01/04 02:37:00;;;;;;;19.23;4.70;;;8.20;99.90;;;;;;4975822;28;20035;-82
2024/01/04 02:39:25;;;;;;;15.67;4.27;;;8.20;99.90;;;;;;4958572;28;20106;-81
2024/01/04 02:41:51;;;;;;;13.80;4.53;;;8.20;99.90;;;;;;4975298;28;20487;-81
2024/01/04 02:44:18;;;;;;;16.40;4.10;;;8.20;99.90;;;;;;4975658;28;20038;-82
2024/01/04 02:46:44;;;;;;;19.03;5.27;;;8.20;99.90;;;;;;4976443;28;20046;-81
2024/01/04 02:49:10;;;;;;;21.70;5.00;;;8.20;99.90;;;;;;4976275;28;20046;-82
2024/01/04 02:51:36;;;;;;;19.93;5.87;;;8.20;99.90;;;;;;4976026;28;20027;-82
2024/01/04 02:54:02;;;;;;;16.93;5.30;;;8.20;99.90;;;;;;4959005;28;20034;-84
2024/01/04 02:56:27;;;;;;;20.67;5.20;;;8.20;99.90;;;;;;4958217;28;20022;-83
2024/01/04 02:58:56;;;;;;;21.43;5.40;;;8.20;99.90;;;;;;4975993;28;20130;-82
2024/01/04 03:01:23;;;;;;;13.87;4.70;;;8.10;99.90;;;;;;4975332;28;20031;-82
2024/01/04 03:03:55;;;;;;;13.57;4.77;;;8.20;99.90;;;;;;4958062;28;20023;-82
2024/01/04 03:06:29;;;;;;;17.17;5.00;;;8.20;99.90;;;;;;4958263;28;20026;-82
2024/01/04 03:08:55;;;;;;;15.67;4.70;;;8.20;99.90;;;;;;4958284;28;20106;-82
2024/01/04 03:11:21;;;;;;;17.53;4.40;;;8.20;99.90;;;;;;4975619;28;20512;-82
2024/01/04 03:13:46;;;;;;;17.23;5.00;;;8.20;99.90;;;;;;4975693;28;20027;-82
2024/01/04 03:16:17;;;;;;;16.37;5.57;;;8.10;99.90;;;;;;4957991;28;20497;-83
2024/01/04 03:18:43;;;;;;;16.77;4.43;;;8.10;99.90;;;;;;4958122;28;20023;-82
2024/01/04 03:21:08;;;;;;;19.40;5.00;;;8.20;99.90;;;;;;4973913;28;20023;-82
2024/01/04 03:23:34;;;;;;;17.63;5.23;;;8.20;99.90;;;;;;4975215;28;20547;-82
2024/01/04 03:26:00;;;;;;;19.83;6.47;;;8.00;99.90;;;;;;4958321;28;20038;-82
2024/01/04 03:28:31;;;;;;;18.47;4.90;;;8.20;99.90;;;;;;4975587;28;20475;-82
2024/01/04 03:30:57;;;;;;;17.90;5.40;;;8.20;99.90;;;;;;4975220;28;20093;-82
2024/01/04 03:33:23;;;;;;;11.13;4.30;;;8.20;99.90;;;;;;4975554;28;20058;-82
2024/01/04 03:35:48;;;;;;;12.70;4.77;;;8.20;99.90;;;;;;4973030;28;20046;-82
2024/01/04 03:38:14;;;;;;;15.20;5.27;;;8.20;99.90;;;;;;4957677;28;20026;-81
2024/01/04 03:40:40;;;;;;;15.77;4.67;;;8.20;99.90;;;;;;4973957;28;20025;-82
2024/01/04 03:43:07;;;;;;;14.43;4.63;;;8.20;99.90;;;;;;4975283;28;20023;-82
2024/01/04 03:45:32;;;;;;;15.53;4.27;;;8.20;99.90;;;;;;4957018;28;20038;-82
2024/01/04 03:47:58;;;;;;;17.10;4.60;;;8.20;99.90;;;;;;4957288;28;20023;-82
2024/01/04 03:50:24;;;;;;;16.07;5.67;;;8.20;99.90;;;;;;4973588;28;20559;-81
2024/01/04 03:52:50;;;;;;;13.77;4.17;;;8.20;99.90;;;;;;4974628;28;20023;-83
2024/01/04 03:55:16;;;;;;;20.47;4.40;;;8.20;99.90;;;;;;4957521;28;20018;-83
2024/01/04 03:57:46;;;;;;;19.03;5.20;;;8.20;99.90;;;;;;4973348;28;20434;-82
2024/01/04 04:00:12;;;;;;;18.23;4.70;;;8.20;99.90;;;;;;4974795;28;20545;-82
2024/01/04 04:02:38;;;;;;;13.37;4.13;;;8.10;99.90;;;;;;4957207;28;20027;-82
2024/01/04 04:05:04;;;;;;;14.10;5.13;;;8.10;99.90;;;;;;4973245;28;20027;-82
2024/01/04 04:07:30;;;;;;;24.27;6.67;;;8.20;99.90;;;;;;4974681;28;20019;-82
2024/01/04 04:09:56;;;;;;;23.33;6.37;;;8.20;99.90;;;;;;4973043;28;20027;-82
2024/01/04 04:12:22;;;;;;;17.80;5.63;;;8.10;99.90;;;;;;4957196;28;20015;-82
2024/01/04 04:14:48;;;;;;;19.57;5.93;;;8.10;99.90;;;;;;4973027;28;20031;-82
2024/01/04 04:17:17;;;;;;;18.30;5.43;;;8.10;99.90;;;;;;4973448;28;20069;-81
2024/01/04 04:19:43;;;;;;;13.97;4.23;;;8.10;99.90;;;;;;4973187;28;20027;-82
2024/01/04 04:22:09;;;;;;;11.57;3.67;;;8.10;99.90;;;;;;4973241;28;20110;-83
2024/01/04 04:24:34;;;;;;;16.13;4.60;;;8.20;99.90;;;;;;4974480;28;20419;-83
2024/01/04 04:27:00;;;;;;;15.27;4.70;;;8.10;99.90;;;;;;4974357;28;20045;-82
2024/01/04 04:29:26;;;;;;;11.73;3.60;;;8.10;99.90;;;;;;4973077;28;20031;-82
2024/01/04 04:31:52;;;;;;;15.07;3.37;;;8.10;99.90;;;;;;4972337;28;20390;-82
2024/01/04 04:34:17;;;;;;;12.80;3.80;;;8.10;99.90;;;;;;4973985;28;20023;-81
2024/01/04 04:36:43;;;;;;;16.43;3.40;;;8.10;99.90;;;;;;4956392;28;20071;-82
2024/01/04 04:39:09;;;;;;;11.17;2.70;;;8.10;99.90;;;;;;4972747;28;20475;-82
2024/01/04 04:41:35;;;;;;;11.20;3.13;;;8.10;99.90;;;;;;4972472;28;20539;-82
2024/01/04 04:44:00;;;;;;;10.40;3.57;;;8.10;99.90;;;;;;4972772;28;20085;-82
2024/01/04 04:46:26;;;;;;;11.30;3.17;;;8.10;99.90;;;;;;4956359;28;20031;-82
2024/01/04 04:48:55;;;;;;;10.27;2.80;;;8.10;99.90;;;;;;4974094;28;20022;-82
2024/01/04 04:51:25;;;;;;;9.70;2.67;;;8.10;99.90;;;;;;4974256;28;20030;-82
2024/01/04 04:53:51;;;;;;;14.57;3.93;;;8.10;99.90;;;;;;4972809;28;20027;-82
2024/01/04 04:56:17;;;;;;;12.47;3.53;;;8.10;99.90;;;;;;4973696;28;20431;-82
2024/01/04 04:58:43;;;;;;;10.53;3.37;;;8.10;99.90;;;;;;4974275;28;20480;-81
2024/01/04 05:01:09;;;;;;;8.70;2.80;;;8.10;99.90;;;;;;4973869;28;20026;-82
2024/01/04 05:03:35;;;;;;;16.70;4.63;;;8.10;99.90;;;;;;4972890;28;20054;-80
2024/01/04 05:06:01;;;;;;;17.87;4.23;;;8.10;99.90;;;;;;4973441;28;20030;-81
2024/01/04 05:08:27;;;;;;;11.80;4.07;;;8.10;99.90;;;;;;4974449;28;20354;-81
2024/01/04 05:10:53;;;;;;;15.83;4.47;;;8.10;99.90;;;;;;4972727;28;20042;-81
2024/01/04 05:13:21;;;;;;;14.73;4.20;;;8.10;99.90;;;;;;4974086;28;20027;-81
2024/01/04 05:15:52;;;;;;;16.37;4.20;;;8.10;99.90;;;;;;4972535;28;20089;-80
2024/01/04 05:18:18;;;;;;;11.23;4.17;;;8.10;99.90;;;;;;4972684;28;20030;-82
2024/01/04 05:20:43;;;;;;;14.17;3.87;;;8.10;99.90;;;;;;4972452;28;20027;-80
2024/01/04 05:23:10;;;;;;;12.67;3.87;;;8.10;99.90;;;;;;4972560;28;20433;-81
2024/01/04 05:25:36;;;;;;;11.60;3.70;;;8.10;99.90;;;;;;4977020;28;20165;-79
2024/01/04 05:28:02;;;;;;;12.87;4.27;;;8.10;99.90;;;;;;4959855;28;20105;-81
2024/01/04 05:30:28;;;;;;;15.97;4.67;;;8.10;99.90;;;;;;4975864;28;20027;-81
2024/01/04 05:32:54;;;;;;;14.33;3.30;;;8.00;99.90;;;;;;4977382;28;20023;-81
2024/01/04 05:35:20;;;;;;;12.67;4.10;;;8.10;99.90;;;;;;4975309;28;20186;-82
2024/01/04 05:37:46;;;;;;;13.87;4.37;;;8.10;99.90;;;;;;4975964;28;20030;-81
2024/01/04 05:40:12;;;;;;;11.27;3.90;;;8.10;99.90;;;;;;4977347;28;20037;-81
2024/01/04 05:42:38;;;;;;;17.53;3.97;;;8.10;99.90;;;;;;4977360;28;20094;-81
2024/01/04 05:45:05;;;;;;;14.13;3.53;;;8.10;99.90;;;;;;4959331;28;20082;-81
2024/01/04 05:47:30;;;;;;;9.63;3.50;;;8.10;99.90;;;;;;4976929;28;20033;-81
2024/01/04 05:49:56;;;;;;;10.97;3.93;;;8.10;99.90;;;;;;4977678;28;20031;-81
2024/01/04 05:52:24;;;;;;;11.80;3.93;;;8.10;99.90;;;;;;4976833;28;20110;-81
2024/01/04 05:54:49;;;;;;;15.33;4.33;;;8.00;99.90;;;;;;4991327;28;20034;-81
2024/01/04 05:57:17;;;;;;;15.97;4.10;;;8.10;99.90;;;;;;4995987;28;20014;-82
2024/01/04 05:59:43;;;;;;;9.60;3.87;;;8.10;99.90;;;;;;4978031;28;20030;-81
2024/01/04 06:02:09;;;;;;;12.47;4.23;;;8.10;99.90;;;;;;4962794;28;20364;-80
2024/01/04 06:04:35;;;;;;;15.47;3.87;;;8.10;99.90;;;;;;4996461;28;20026;-81
2024/01/04 06:07:00;;;;;;;10.70;3.57;;;8.10;99.90;;;;;;4995852;28;20548;-79
2024/01/04 06:09:26;;;;;;;14.63;3.87;;;8.00;99.90;;;;;;4995971;28;20034;-80
2024/01/04 06:11:52;;;;;;;12.40;3.57;;;8.10;99.90;;;;;;4978442;28;20029;-80
2024/01/04 06:14:18;;;;;;;11.27;3.63;;;8.10;99.90;;;;;;4978070;28;20022;-82
2024/01/04 06:16:44;;;;;;;10.27;3.73;;;8.10;99.90;;;;;;4978583;28;20027;-81
2024/01/04 06:19:09;;;;;;;9.23;3.17;;;8.00;99.90;;;;;;4978410;28;20026;-81
2024/01/04 06:21:36;;;;;;;10.90;2.57;;;8.00;99.90;;;;;;4978462;28;20114;-80
2024/01/04 06:24:03;;;;;;;11.07;3.00;;;8.00;99.90;;;;;;4996106;28;20398;-81
2024/01/04 06:26:28;;;;;;;10.07;3.10;;;8.00;99.90;;;;;;4978269;28;20101;-80
2024/01/04 06:28:54;;;;;;;9.07;2.90;;;8.10;99.90;;;;;;4977934;28;20117;-79
2024/01/04 06:31:20;;;;;;;7.10;2.53;;;8.00;99.90;;;;;;4978060;28;20121;-81
2024/01/04 06:33:48;;;;;;;11.37;2.20;;;8.00;99.90;;;;;;4995545;28;20053;-81
2024/01/04 06:36:15;;;;;;;9.40;2.03;;;8.00;99.90;;;;;;4976737;28;20049;-81
2024/01/04 06:38:40;;;;;;;13.17;2.80;;;8.00;99.90;;;;;;4978026;28;20033;-81
2024/01/04 06:41:07;;;;;;;9.30;2.73;;;8.00;99.90;;;;;;4995687;28;20030;-82
2024/01/04 06:43:34;;;;;;;9.60;2.67;;;8.00;99.90;;;;;;4977743;28;20023;-82
2024/01/04 06:46:07;;;;;;;11.50;2.90;;;8.00;99.90;;;;;;4978072;28;20022;-81
2024/01/04 06:48:39;;;;;;;10.75;2.42;;;8.00;99.90;;;;;;4978618;28;20022;-80
2024/01/04 06:51:06;;;;;;;7.57;2.45;;;8.00;99.90;;;;;;4994121;28;20062;-82
2024/01/04 06:53:33;;;;;;;8.07;2.73;;;8.00;99.90;;;;;;4978062;28;20050;-82
2024/01/04 06:56:18;;;;;;;13.90;3.50;;;8.00;99.90;;;;;;4977425;28;20541;-81
2024/01/04 06:59:09;;;;;;;8.63;2.73;;;8.00;99.90;;;;;;4995188;28;20018;-82
2024/01/04 07:01:38;;;;;;;9.13;2.25;;;8.00;99.90;;;;;;4973657;28;20071;-82
2024/01/04 07:04:03;;;;;;;9.83;2.70;;;8.00;99.90;;;;;;4957277;28;20514;-82
2024/01/04 07:06:31;;;;;;;10.23;3.07;;;8.00;99.90;;;;;;4957538;28;20037;-82
2024/01/04 07:08:57;;;;;;;8.37;2.87;;;8.00;99.90;;;;;;4957305;28;20463;-80
2024/01/04 07:11:29;;;;;;;10.57;3.60;;;8.00;99.90;;;;;;4973181;28;20038;-81
2024/01/04 07:13:55;;;;;;;8.40;3.43;;;8.00;99.90;;;;;;4957639;28;20097;-81
2024/01/04 07:16:21;;;;;;;9.17;2.90;;;8.00;99.90;;;;;;4957077;28;20058;-81
2024/01/04 07:18:46;;;;;;;13.73;3.10;;;8.00;99.90;;;;;;4956673;28;20035;-80
2024/01/04 07:21:14;;;;;;;9.57;3.03;;;8.00;99.90;;;;;;4973289;28;20031;-81
2024/01/04 07:23:40;;;;;;;9.53;2.90;;;8.00;99.90;;;;;;4957038;28;20023;-81
2024/01/04 07:26:06;;;;;;;9.93;3.27;;;8.00;99.90;;;;;;4973249;28;20023;-81
2024/01/04 07:28:32;;;;;;;10.00;2.97;;;8.00;99.90;;;;;;4957263;28;20493;-81
2024/01/04 07:30:59;;;;;;;9.23;3.10;;;8.00;99.90;;;;;;4956915;28;20097;-81
2024/01/04 07:33:30;;;;;;;11.23;2.87;;;8.00;99.90;;;;;;4974430;28;20053;-81
2024/01/04 07:35:57;;;;;;;9.03;2.97;;;8.00;99.90;;;;;;4976604;28;20050;-82
2024/01/04 07:38:23;;;;;;;10.73;3.30;;;8.00;99.90;;;;;;4994085;28;20029;-81
2024/01/04 07:40:49;;;;;;;9.57;3.07;;;8.00;99.90;;;;;;4976822;28;20389;-81
2024/01/04 07:43:15;;;;;;;12.73;3.43;;;8.00;99.90;;;;;;4976751;28;20029;-82
2024/01/04 07:45:40;;;;;;;12.43;3.03;;;8.00;99.90;;;;;;4976540;28;20117;-79
2024/01/04 07:48:07;;;;;;;12.03;3.60;;;8.00;99.90;;;;;;4975366;28;20057;-82
2024/01/04 07:50:33;;;;;;;15.20;3.87;;;8.10;99.90;;;;;;4994170;28;20034;-80
2024/01/04 07:53:05;;;;;;;9.70;3.57;;;8.00;99.90;;;;;;4977129;28;20061;-80
2024/01/04 07:55:57;;;;;;;14.43;3.90;;;8.10;99.90;;;;;;4976220;28;20022;-81
2024/01/04 07:58:24;;;;;;;15.95;4.90;;;8.10;99.90;;;;;;4984791;28;20049;-81
2024/01/04 08:00:51;;;;;;;12.83;4.87;;;8.10;99.90;;;;;;5012825;28;20026;-80
2024/01/04 08:03:16;;;;;;;14.67;5.13;;;8.10;99.90;;;;;;5000959;28;20034;-79
2024/01/04 08:05:42;;;;;;;13.50;5.53;;;8.00;99.90;;;;;;4957662;28;20085;-80
2024/01/04 08:08:08;;;;;;;12.73;4.60;;;8.10;99.90;;;;;;4974297;28;20113;-80
2024/01/04 08:10:34;;;;;;;14.13;5.40;;;8.10;99.90;;;;;;4974239;28;20105;-81
2024/01/04 08:13:00;;;;;;;15.43;4.93;;;8.10;99.90;;;;;;4956826;28;20419;-80
2024/01/04 08:15:25;;;;;;;12.37;4.77;;;8.10;99.90;;;;;;4973203;28;20399;-81
2024/01/04 08:17:51;;;;;;;13.40;4.83;;;8.10;99.90;;;;;;4980009;28;20034;-81
2024/01/04 08:20:18;;;;;;;14.53;4.97;;;8.10;99.90;;;;;;4993217;28;20112;-81
2024/01/04 08:22:44;;;;;;;17.77;5.37;;;8.10;99.90;;;;;;4975740;28;20221;-81
2024/01/04 08:25:09;;;;;;;16.33;5.10;;;8.10;99.90;;;;;;4975556;28;20030;-81
2024/01/04 08:27:35;;;;;;;14.13;5.07;;;8.10;99.90;;;;;;4975004;28;20019;-81
2024/01/04 08:30:01;;;;;;;15.07;4.57;;;8.10;99.90;;;;;;4993212;28;20065;-82
2024/01/04 08:32:28;;;;;;;13.60;4.53;;;8.10;99.90;;;;;;4994458;28;20026;-81
2024/01/04 08:34:55;;;;;;;16.37;4.97;;;8.10;99.90;;;;;;4975327;28;20101;-81
2024/01/04 08:37:20;;;;;;;13.27;4.10;;;8.10;99.90;;;;;;4975727;28;20034;-82
2024/01/04 08:39:50;;;;;;;13.73;4.13;;;8.20;99.90;;;;;;4992910;28;20029;-81
2024/01/04 08:42:16;;;;;;;12.93;3.67;;;8.10;99.90;;;;;;4993588;28;20113;-81
2024/01/04 08:44:44;;;;;;;16.90;4.40;;;8.10;99.90;;;;;;4992571;28;20116;-81
2024/01/04 08:47:11;;;;;;;14.67;4.50;;;8.10;99.90;;;;;;4975584;28;20014;-81
2024/01/04 08:49:36;;;;;;;12.27;4.53;;;8.10;99.90;;;;;;4976082;28;20042;-82
2024/01/04 08:52:13;;;;;;;13.20;4.33;;;8.10;99.90;;;;;;4993438;28;20041;-82
2024/01/04 08:54:42;;;;;;;16.37;4.80;;;8.20;99.90;;;;;;4991889;28;20077;-82
2024/01/04 08:57:14;;;;;;;15.13;4.70;;;8.20;99.90;;;;;;4975997;28;20085;-82
2024/01/04 08:59:40;;;;;;;11.93;3.57;;;8.20;99.90;;;;;;4994433;28;20393;-82
2024/01/04 09:02:06;;;;;;;12.53;3.93;;;8.20;99.90;;;;;;4999547;28;20079;-82
2024/01/04 09:04:31;;;;;;;14.70;4.90;;;8.20;99.90;;;;;;4999481;28;20030;-81
2024/01/04 09:06:58;;;;;;;17.47;4.87;;;8.30;99.90;;;;;;4999111;28;20030;-81
2024/01/04 09:09:25;;;;;;;13.60;4.23;;;8.20;99.90;;;;;;4999294;28;20080;-81
2024/01/04 09:11:51;;;;;;;13.60;4.30;;;8.20;99.90;;;;;;4999182;28;20022;-81
2024/01/04 09:14:19;;;;;;;13.67;5.07;;;8.20;99.90;;;;;;5016714;28;20026;-81
2024/01/04 09:16:48;;;;;;;16.67;5.43;;;8.30;99.90;;;;;;4998892;28;20455;-80
2024/01/04 09:19:19;;;;;;;16.13;5.67;;;8.30;99.90;;;;;;5015813;28;20022;-80
2024/01/04 09:22:17;;;;;;;15.50;5.60;;;8.30;99.90;;;;;;4997763;28;20030;-80
2024/01/04 09:24:44;;;;;;;16.90;5.93;;;8.30;99.90;;;;;;4957700;28;20035;-80
2024/01/04 09:27:12;;;;;;;22.07;6.33;;;8.30;99.90;;;;;;4975299;28;20603;-79
2024/01/04 09:29:38;;;;;;;21.30;6.97;;;8.30;99.90;;;;;;4975219;28;20510;-81
2024/01/04 09:32:04;;;;;;;14.03;5.47;;;8.40;99.90;;;;;;4958532;28;20065;-81
2024/01/04 09:34:29;;;;;;;17.73;6.07;;;8.40;99.90;;;;;;4974671;28;20072;-82
2024/01/04 09:36:55;;;;;;;20.50;6.00;;;8.40;99.90;;;;;;4974798;28;20046;-81
2024/01/04 09:39:21;;;;;;;16.00;5.40;;;8.50;99.90;;;;;;4975059;28;20027;-82
2024/01/04 09:41:48;;;;;;;18.37;6.60;;;8.50;99.90;;;;;;4974856;28;20041;-82
2024/01/04 09:44:14;;;;;;;17.93;6.50;;;8.50;99.90;;;;;;4974861;28;20093;-82
2024/01/04 09:46:41;;;;;;;18.27;6.90;;;8.50;99.90;;;;;;4974958;28;20035;-82
2024/01/04 09:49:13;;;;;;;15.97;5.87;;;8.50;99.90;;;;;;4974899;28;20541;-84
2024/01/04 09:51:40;;;;;;;14.97;5.50;;;8.50;99.90;;;;;;4975235;28;20185;-85
2024/01/04 09:54:08;;;;;;;16.60;5.90;;;8.50;99.90;;;;;;4959580;28;20023;-85
2024/01/04 09:56:43;;;;;;;14.93;5.30;;;8.50;99.90;;;;;;4978655;28;20042;-81
2024/01/04 09:59:09;;;;;;;16.03;5.33;;;8.60;99.90;;;;;;4996201;28;20026;-81
2024/01/04 10:01:37;;;;;;;17.80;5.30;;;8.60;99.90;;;;;;4978922;28;20166;-82
2024/01/04 10:04:14;;;;;;;16.67;5.10;;;8.60;99.90;;;;;;4997373;28;20113;-81
2024/01/04 10:06:41;;;;;;;15.00;6.30;;;8.60;99.90;;;;;;4996113;28;20025;-81
2024/01/04 10:09:39;;;;;;;16.40;6.57;;;8.60;99.90;;;;;;4978981;28;20057;-80
2024/01/04 10:12:08;;;;;;;21.77;6.97;;;8.50;99.90;;;;;;4977695;28;20038;-80
2024/01/04 10:14:35;;;;;;;18.67;6.53;;;8.60;99.90;;;;;;4996151;28;20386;-81
2024/01/04 10:17:01;;;;;;;18.00;7.97;;;8.50;99.90;;;;;;4994745;28;20034;-81
2024/01/04 10:19:30;;;;;;;21.47;8.80;;;8.60;99.90;;;;;;4996023;28;20486;-81
2024/01/04 10:22:03;;;;;;;26.53;8.87;;;8.60;99.90;;;;;;4994885;28;20037;-81
2024/01/04 10:24:31;;;;;;;19.67;8.18;;;8.60;99.90;;;;;;4995650;28;20165;-80
2024/01/04 10:26:58;;;;;;;15.40;7.40;;;8.60;99.90;;;;;;4996091;28;20030;-81
2024/01/04 10:29:25;;;;;;;11.10;5.90;;;8.60;99.90;;;;;;4995735;28;20057;-81
2024/01/04 10:32:10;;;;;;;12.47;6.23;;;8.60;99.90;;;;;;4978394;28;20476;-81
2024/01/04 10:34:37;;;;;;;11.85;5.43;;;8.60;99.90;;;;;;4977931;28;20022;-81
2024/01/04 10:37:21;;;;;;;10.57;5.90;;;8.70;99.90;;;;;;4977964;28;20053;-81
2024/01/04 10:39:58;;;;;;;10.13;5.77;;;8.70;99.90;;;;;;4995684;28;20080;-81
2024/01/04 10:42:24;;;;;;;12.73;5.40;;;8.70;99.90;;;;;;4978255;28;20033;-81
2024/01/04 10:44:53;;;;;;;13.20;6.07;;;8.70;99.90;;;;;;4978398;28;20057;-80
2024/01/04 10:47:19;;;;;;;10.73;5.17;;;8.70;99.90;;;;;;4994132;28;20053;-80
2024/01/04 10:49:49;;;;;;;12.37;6.20;;;8.70;99.90;;;;;;4977460;28;20026;-80
2024/01/04 10:52:21;;;;;;;11.27;5.20;;;8.80;99.90;;;;;;4978391;28;20382;-80
2024/01/04 10:54:48;;;;;;;11.37;5.33;;;8.70;99.90;;;;;;4978136;28;20025;-81
2024/01/04 10:57:13;;;;;;;12.17;5.40;;;8.80;99.90;;;;;;4995103;28;20024;-81
2024/01/04 10:59:42;;;;;;;8.93;4.37;;;8.80;99.90;;;;;;4977762;28;20018;-81
2024/01/04 11:02:11;;;;;;;9.40;4.10;;;8.80;99.90;;;;;;4977614;28;20027;-81
2024/01/04 11:04:38;;;;;;;10.00;3.73;;;8.90;99.90;;;;;;4995020;28;20030;-81
2024/01/04 11:07:03;;;;;;;10.03;3.57;;;8.90;99.90;;;;;;4995135;28;20046;-81
2024/01/04 11:09:31;;;;;;;11.63;3.60;;;8.90;99.90;;;;;;4994911;28;20065;-81
2024/01/04 11:11:58;;;;;;;6.00;2.47;;;9.00;99.90;;;;;;4977612;28;20519;-80
2024/01/04 11:14:25;;;;;;;8.30;3.40;;;8.90;99.90;;;;;;4995072;28;20026;-81
2024/01/04 11:17:16;;;;;;;7.23;3.17;;;9.00;99.90;;;;;;4993355;28;20387;-80
2024/01/04 11:20:10;;;;;;;8.23;3.53;;;8.90;99.90;;;;;;4977066;28;20026;-81
2024/01/04 11:22:51;;;;;;;11.05;3.63;;;9.00;99.90;;;;;;4977050;28;20034;-81
2024/01/04 11:25:26;;;;;;;9.03;3.30;;;8.90;99.90;;;;;;4977376;28;20088;-81
2024/01/04 11:27:52;;;;;;;8.77;3.33;;;9.00;99.90;;;;;;4994346;28;20037;-81
2024/01/04 11:30:18;;;;;;;9.83;3.00;;;9.00;99.90;;;;;;4976954;28;20113;-81
2024/01/04 11:32:44;;;;;;;8.10;3.40;;;9.10;99.90;;;;;;4976904;28;20034;-81
2024/01/04 11:35:11;;;;;;;10.53;4.57;;;9.20;99.90;;;;;;4976541;28;20026;-80
2024/01/04 11:37:37;;;;;;;10.82;4.20;;;9.40;99.90;;;;;;4977095;28;20035;-81
2024/01/04 11:40:07;;;;;;;11.40;5.38;;;9.70;99.90;;;;;;4994373;28;20097;-81
2024/01/04 11:42:35;;;;;;;10.10;4.30;;;9.90;99.90;;;;;;4992715;28;20023;-81
2024/01/04 11:45:04;;;;;;;11.75;4.45;;;10.00;99.90;;;;;;4976926;28;20030;-81
2024/01/04 11:47:35;;;;;;;10.60;3.85;;;10.10;99.90;;;;;;4976288;28;20033;-81
2024/01/04 11:50:03;;;;;;;10.15;4.53;;;10.10;99.90;;;;;;4976645;28;20038;-80
2024/01/04 11:52:29;;;;;;;10.80;4.78;;;10.10;99.90;;;;;;4976740;28;20022;-81
2024/01/04 11:54:55;;;;;;;12.65;5.05;;;10.10;99.90;;;;;;4977040;28;20019;-82
2024/01/04 11:57:26;;;;;;;12.43;4.93;;;10.00;99.90;;;;;;4993743;28;20027;-82
2024/01/04 11:59:52;;;;;;;9.68;5.00;;;9.90;99.90;;;;;;4993522;28;20081;-82
2024/01/04 12:02:19;;;;;;;12.65;6.03;;;9.90;99.90;;;;;;4993547;28;20557;-81
2024/01/04 12:04:45;;;;;;;13.80;5.87;;;9.70;99.90;;;;;;4988536;28;20022;-81
2024/01/04 12:07:12;;;;;;;10.27;5.97;;;9.70;99.90;;;;;;4968458;28;20026;-82
2024/01/04 12:09:41;;;;;;;10.55;5.10;;;9.60;99.90;;;;;;4970541;28;20054;-82
2024/01/04 12:12:10;;;;;;;10.40;5.30;;;9.60;99.90;;;;;;4976274;28;20018;-82
2024/01/04 12:14:37;;;;;;;10.17;5.60;;;9.60;99.90;;;;;;4993380;28;20022;-81
2024/01/04 12:17:03;;;;;;;9.43;4.90;;;9.60;99.90;;;;;;4993599;28;20140;-82
2024/01/04 12:19:28;;;;;;;9.85;4.90;;;9.70;99.90;;;;;;4993313;28;20030;-82
2024/01/04 12:21:55;;;;;;;10.47;5.10;;;9.80;99.90;;;;;;4993645;28;20368;-82
2024/01/04 12:24:21;;;;;;;8.05;4.05;;;9.80;99.90;;;;;;4993329;28;20022;-81
2024/01/04 12:26:47;;;;;;;9.55;4.68;;;9.70;99.90;;;;;;4975587;28;20038;-81
2024/01/04 12:29:14;;;;;;;6.93;3.92;;;9.80;99.90;;;;;;4993508;28;20098;-80
2024/01/04 12:31:42;;;;;;;10.50;4.73;;;9.70;99.90;;;;;;4993060;28;20027;-81
2024/01/04 12:34:09;;;;;;;8.60;4.33;;;9.70;99.90;;;;;;4975243;28;20037;-82
2024/01/04 12:36:35;;;;;;;8.43;4.47;;;9.60;99.90;;;;;;4992574;28;20046;-81
2024/01/04 12:39:13;;;;;;;7.63;4.50;;;9.60;99.90;;;;;;4993354;28;20030;-82
2024/01/04 12:41:43;;;;;;;10.33;4.33;;;9.50;99.90;;;;;;4992963;28;20046;-81
2024/01/04 12:44:08;;;;;;;7.63;3.70;;;9.50;99.90;;;;;;4975854;28;20085;-81
2024/01/04 12:46:34;;;;;;;8.27;3.53;;;9.50;99.90;;;;;;4975266;28;20426;-81
2024/01/04 12:49:10;;;;;;;6.17;3.20;;;9.50;99.90;;;;;;4993035;28;20030;-81